• Join FlightAware (Why Join?)
  • Login
  • US Flag 
06:27PM EDT


 

Airport Tracker/Info


-or-


 

Live Flight TrackerFlight Track Log ✈ ASH1021 ✈ 15-May-2013 ✈ PHNL - PHOG / OGG

Flight Track Log - Related Links

Times and Time Zones

All times are in EDT time to prevent confusion due to time zone crossing. See the ASH1021 flight status page for this flight to view local times or setup timezone preferences in your user account.

Time Position Orientation Groundspeed Altitude Reporting Facility
EDT Latitude Longitude Course Direction KTS MPH feet Rate Location/Type
01:03PM 21.3167 -157.9000 148° Southeast 170 196 1,000  Level Honolulu Center
01:04PM 21.2667 -157.8667 148° Southeast 200 230 3,500 2,340 Climbing Honolulu Center
01:05PM 21.2333 -157.8167 126° Southeast 240 276 5,700 2,280 Climbing Honolulu Center
01:06PM 21.2000 -157.7500 118° Southeast 270 311 8,100 2,340 Climbing Honolulu Center
01:07PM 21.1500 -157.6833 129° Southeast 280 322 10,400 1,680 Climbing Honolulu Center
01:08PM 21.1167 -157.6000 113° Southeast 320 368 11,500 1,260 Climbing Honolulu Center
01:09PM 21.0667 -157.5167 123° Southeast 340 391 13,000 720 Climbing Honolulu Center
01:10PM 21.0333 -157.4167 110° East 350 403 13,000  Level Honolulu Center
01:11PM 20.9833 -157.3167 118° Southeast 340 391 13,000  Level Honolulu Center
01:12PM 20.9500 -157.2333 113° Southeast 340 391 13,000  Level Honolulu Center
01:13PM 20.9000 -157.1333 118° Southeast 340 391 13,000 -60 Level Honolulu Center
01:14PM 20.8667 -157.0500 113° Southeast 320 368 12,900 -840 Descending Honolulu Center
01:15PM 20.8333 -156.9667 113° Southeast 290 334 11,400 -1,740 Descending Honolulu Center
01:16PM 20.8000 -156.9000 118° Southeast 280 322 9,400 -2,040 Descending Honolulu Center
01:17PM 20.7667 -156.8167 113° Southeast 280 322 7,300 -2,040 Descending Honolulu Center
01:18PM 20.7333 -156.7500 118° Southeast 270 311 5,400 -1,860 Descending Honolulu Center
01:19PM 20.7167 -156.6833 105° East 240 276 3,600 -1,200 Descending Honolulu Center
01:20PM 20.7333 -156.6000 78° East 240 276 3,000 -480 Descending Honolulu Center
01:21PM 20.7333 -156.5333 90° East 220 253 2,700 -780 Descending Honolulu Center
01:22PM 20.8000 -156.5000 25° Northeast 220 253 1,500 -780 Descending Honolulu Center
01:23PM 20.8333 -156.4667 43° Northeast 140 161 1,200 -420 Descending Honolulu Center
01:24PM 20.8500 -156.4500 43° Northeast 120 138 700 -540 Descending Honolulu Center